createdAt,value
2018-06-09T00:00:23.335Z,127.70
2018-06-09T00:01:23.320Z,127.60
2018-06-09T00:02:23.307Z,128.80
2018-06-09T00:03:23.309Z,128.40
2018-06-09T00:04:23.276Z,131.70
2018-06-09T00:05:23.263Z,131.20
2018-06-09T00:06:23.249Z,130.60
2018-06-09T00:07:23.233Z,133.80
2018-06-09T00:08:23.221Z,134.40
2018-06-09T00:09:23.215Z,133.50
2018-06-09T00:10:23.189Z,134.00
2018-06-09T00:11:23.176Z,134.20
2018-06-09T00:12:23.168Z,131.60
2018-06-09T00:13:23.148Z,131.30
2018-06-09T00:14:23.142Z,129.80
2018-06-09T00:15:23.116Z,132.70
2018-06-09T00:16:23.104Z,136.30
2018-06-09T00:17:23.089Z,132.50
2018-06-09T00:18:23.073Z,137.20
2018-06-09T00:19:23.324Z,132.60
2018-06-09T00:20:23.043Z,135.70
2018-06-09T00:21:23.032Z,131.20
2018-06-09T00:22:23.016Z,135.00
2018-06-09T00:23:23.001Z,131.50
2018-06-09T00:24:22.986Z,133.20
2018-06-09T00:25:22.989Z,135.10
2018-06-09T00:26:22.957Z,135.60
2018-06-09T00:27:22.944Z,133.20
2018-06-09T00:28:22.929Z,135.20
2018-06-09T00:29:22.917Z,132.00
2018-06-09T00:30:22.914Z,132.60
2018-06-09T00:31:22.888Z,138.90
2018-06-09T00:32:22.870Z,133.90
2018-06-09T00:33:22.857Z,138.40
2018-06-09T00:34:22.841Z,137.00
2018-06-09T00:35:22.832Z,139.10
2018-06-09T00:36:22.825Z,137.20
2018-06-09T00:37:22.798Z,136.00
2018-06-09T00:38:22.781Z,137.20
2018-06-09T00:39:22.768Z,139.00
2018-06-09T00:40:22.756Z,138.10
2018-06-09T00:41:22.750Z,133.80
2018-06-09T00:42:22.724Z,135.40
2018-06-09T00:43:22.712Z,141.30
2018-06-09T00:44:22.700Z,140.60
2018-06-09T00:45:22.682Z,133.80
2018-06-09T00:46:22.946Z,140.00
2018-06-09T00:47:22.659Z,142.80
2018-06-09T00:48:22.637Z,145.50
2018-06-09T00:49:22.623Z,143.80
2018-06-09T00:50:22.612Z,143.30
2018-06-09T00:51:22.595Z,144.40
2018-06-09T00:52:22.591Z,146.30
2018-06-09T00:53:22.572Z,146.30
2018-06-09T00:54:22.549Z,147.90
2018-06-09T00:55:22.535Z,147.50
2018-06-09T00:56:22.520Z,150.70
2018-06-09T00:57:22.781Z,150.80
2018-06-09T00:58:22.499Z,150.30
2018-06-09T00:59:22.476Z,152.20
2018-06-09T01:00:22.467Z,156.10
2018-06-09T01:01:22.449Z,154.90
2018-06-09T01:02:22.433Z,152.40
2018-06-09T01:03:22.427Z,145.90
2018-06-09T01:04:22.403Z,148.70
2018-06-09T01:05:22.387Z,147.50
2018-06-09T01:06:22.373Z,147.00
2018-06-09T01:07:22.359Z,152.50
2018-06-09T01:08:22.361Z,147.40
2018-06-09T01:09:22.330Z,144.30
2018-06-09T01:10:22.319Z,147.40
2018-06-09T01:11:22.300Z,151.40
2018-06-09T01:12:22.287Z,151.90
2018-06-09T01:13:22.273Z,145.90
2018-06-09T01:14:22.273Z,145.30
2018-06-09T01:15:22.242Z,150.00
2018-06-09T01:16:22.227Z,144.60
2018-06-09T01:17:22.214Z,145.50
2018-06-09T01:18:22.209Z,139.40
2018-06-09T01:19:22.183Z,142.60
2018-06-09T01:20:22.179Z,136.40
2018-06-09T01:21:22.154Z,149.40
2018-06-09T01:22:22.138Z,164.30
2018-06-09T01:23:22.127Z,150.60
2018-06-09T01:24:22.111Z,146.00
2018-06-09T01:25:22.107Z,138.40
2018-06-09T01:26:22.081Z,143.30
2018-06-09T01:27:22.064Z,143.20
2018-06-09T01:28:22.054Z,149.00
2018-06-09T01:29:22.036Z,159.60
2018-06-09T01:30:22.031Z,153.90
2018-06-09T01:31:22.018Z,140.60
2018-06-09T01:32:21.991Z,147.00
2018-06-09T01:33:21.973Z,153.40
2018-06-09T01:34:21.959Z,153.70
2018-06-09T01:35:21.983Z,146.40
2018-06-09T01:36:21.931Z,142.50
2018-06-09T01:37:21.918Z,139.70
2018-06-09T01:38:21.901Z,149.50
2018-06-09T01:39:21.888Z,148.10
2018-06-09T01:40:21.874Z,148.70
2018-06-09T01:41:21.875Z,147.40
2018-06-09T01:42:21.847Z,149.90
2018-06-09T01:43:21.832Z,153.80
2018-06-09T01:44:21.815Z,148.70
2018-06-09T01:45:21.797Z,150.20
2018-06-09T01:46:21.782Z,151.40
2018-06-09T01:47:21.776Z,153.50
2018-06-09T01:48:21.751Z,158.40
2018-06-09T01:49:21.738Z,145.90
2018-06-09T01:50:21.723Z,150.70
2018-06-09T01:51:21.715Z,157.70
2018-06-09T01:52:21.703Z,151.80
2018-06-09T01:53:21.678Z,157.20
2018-06-09T01:54:21.664Z,151.40
2018-06-09T01:55:21.649Z,147.00
2018-06-09T01:56:21.635Z,143.00
2018-06-09T01:57:21.634Z,136.30
2018-06-09T01:58:21.603Z,133.80
2018-06-09T01:59:21.591Z,130.50
2018-06-09T02:00:21.575Z,139.70
2018-06-09T02:01:21.562Z,129.80
2018-06-09T02:02:21.543Z,137.50
2018-06-09T02:03:21.544Z,138.40
2018-06-09T02:04:21.514Z,137.70
2018-06-09T02:05:21.499Z,140.50
2018-06-09T02:06:21.485Z,134.10
2018-06-09T02:07:21.502Z,132.90
2018-06-09T02:08:21.470Z,137.80
2018-06-09T02:09:21.442Z,142.30
2018-06-09T02:10:21.424Z,149.00
2018-06-09T02:11:21.408Z,144.10
2018-06-09T02:12:21.395Z,140.60
2018-06-09T02:13:21.383Z,147.30
2018-06-09T02:14:21.375Z,158.70
2018-06-09T02:15:21.351Z,142.70
2018-06-09T02:16:21.336Z,140.50
2018-06-09T02:17:21.320Z,144.40
2018-06-09T02:18:21.306Z,152.70
2018-06-09T02:19:21.309Z,161.80
2018-06-09T02:20:21.276Z,177.80
2018-06-09T02:21:21.262Z,171.50
2018-06-09T02:22:21.246Z,171.00
2018-06-09T02:23:21.230Z,164.70
2018-06-09T02:24:21.215Z,155.70
2018-06-09T02:25:21.212Z,150.50
2018-06-09T02:26:21.190Z,156.90
2018-06-09T02:27:21.168Z,154.30
2018-06-09T02:28:21.158Z,153.40
2018-06-09T02:29:21.141Z,153.60
2018-06-09T02:30:21.137Z,150.60
2018-06-09T02:31:21.111Z,156.80
2018-06-09T02:32:21.095Z,142.50
2018-06-09T02:33:21.081Z,149.90
2018-06-09T02:34:21.069Z,137.20
2018-06-09T02:35:21.069Z,133.30
2018-06-09T02:36:21.036Z,129.30
2018-06-09T02:37:21.023Z,126.60
2018-06-09T02:38:21.006Z,121.20
2018-06-09T02:39:20.993Z,126.90
2018-06-09T02:40:20.976Z,123.00
2018-06-09T02:41:20.977Z,128.60
2018-06-09T02:42:20.946Z,125.70
2018-06-09T02:43:20.935Z,129.70
2018-06-09T02:44:20.916Z,126.10
2018-06-09T02:45:20.901Z,129.20
2018-06-09T02:46:20.884Z,118.60
2018-06-09T02:47:20.881Z,122.80
2018-06-09T02:48:20.861Z,123.90
2018-06-09T02:49:20.840Z,124.00
2018-06-09T02:50:20.829Z,134.50
2018-06-09T02:51:20.809Z,126.70
2018-06-09T02:52:20.816Z,133.40
2018-06-09T02:53:20.781Z,129.10
2018-06-09T02:54:20.764Z,128.00
2018-06-09T02:55:20.750Z,132.80
2018-06-09T02:56:20.735Z,128.70
2018-06-09T02:57:20.731Z,135.70
2018-06-09T02:58:20.711Z,135.40
2018-06-09T02:59:20.692Z,135.40
2018-06-09T03:00:20.676Z,133.20
2018-06-09T03:01:20.661Z,131.80
2018-06-09T03:02:20.919Z,127.10
2018-06-09T03:03:20.630Z,133.20
2018-06-09T03:04:20.615Z,134.80
2018-06-09T03:05:20.601Z,131.60
2018-06-09T03:06:20.586Z,132.40
2018-06-09T03:07:20.572Z,136.50
2018-06-09T03:08:20.875Z,135.30
2018-06-09T03:09:20.544Z,131.20
2018-06-09T03:10:20.525Z,126.20
2018-06-09T03:11:20.512Z,127.50
2018-06-09T03:12:20.502Z,126.60
2018-06-09T03:13:20.482Z,132.80
2018-06-09T03:14:20.477Z,132.10
2018-06-09T03:15:20.454Z,124.00
2018-06-09T03:16:20.437Z,127.20
2018-06-09T03:17:20.422Z,122.50
2018-06-09T03:18:20.405Z,120.50
2018-06-09T03:19:20.401Z,120.80
2018-06-09T03:20:20.376Z,128.50
2018-06-09T03:21:20.363Z,126.00
2018-06-09T03:22:20.346Z,122.90
2018-06-09T03:23:20.331Z,127.80
2018-06-09T03:24:20.332Z,131.60
2018-06-09T03:25:20.303Z,127.10
2018-06-09T03:26:20.286Z,124.20
2018-06-09T03:27:20.273Z,120.30
2018-06-09T03:28:20.259Z,120.40
2018-06-09T03:29:20.243Z,123.20
2018-06-09T03:30:20.243Z,125.40
2018-06-09T03:31:20.214Z,124.30
2018-06-09T03:32:20.203Z,123.70
2018-06-09T03:33:20.184Z,126.50
2018-06-09T03:34:20.171Z,123.10
2018-06-09T03:35:20.153Z,124.40
2018-06-09T03:36:20.152Z,116.20
2018-06-09T03:37:20.124Z,113.10
2018-06-09T03:38:20.110Z,110.90
2018-06-09T03:39:20.095Z,114.30
2018-06-09T03:40:20.085Z,116.90
2018-06-09T03:41:20.346Z,112.40
2018-06-09T03:42:20.054Z,113.60
2018-06-09T03:43:20.099Z,113.50
2018-06-09T03:44:20.023Z,112.10
2018-06-09T03:45:20.009Z,108.50
2018-06-09T03:46:19.991Z,109.70
2018-06-09T03:47:19.987Z,103.50
2018-06-09T03:48:19.962Z,104.20
2018-06-09T03:49:19.947Z,106.40
2018-06-09T03:50:19.932Z,102.40
2018-06-09T03:51:19.920Z,104.00
2018-06-09T03:52:19.913Z,107.40
2018-06-09T03:53:19.890Z,112.40
2018-06-09T03:54:19.874Z,114.30
2018-06-09T03:55:19.857Z,113.50
2018-06-09T03:56:19.846Z,120.10
2018-06-09T03:57:19.845Z,120.40
2018-06-09T03:58:19.812Z,122.90
2018-06-09T03:59:19.800Z,116.70
2018-06-09T04:00:19.785Z,125.90
2018-06-09T04:01:19.773Z,118.50
2018-06-09T04:02:19.755Z,118.50
2018-06-09T04:03:19.757Z,117.40
2018-06-09T04:04:19.728Z,117.60
2018-06-09T04:05:19.713Z,111.90
2018-06-09T04:06:19.696Z,111.90
2018-06-09T04:07:19.684Z,112.10
2018-06-09T04:08:19.668Z,111.00
2018-06-09T04:09:19.665Z,107.30
2018-06-09T04:10:19.640Z,105.50
2018-06-09T04:11:19.627Z,109.70
2018-06-09T04:12:19.610Z,109.10
2018-06-09T04:13:19.594Z,105.50
2018-06-09T04:14:19.593Z,105.30
2018-06-09T04:15:19.566Z,116.20
2018-06-09T04:16:19.550Z,115.00
2018-06-09T04:17:19.536Z,119.00
2018-06-09T04:18:19.535Z,115.00
2018-06-09T04:19:19.517Z,114.90
2018-06-09T04:20:19.498Z,108.10
2018-06-09T04:21:19.481Z,114.20
2018-06-09T04:22:19.462Z,119.00
2018-06-09T04:23:19.449Z,117.20
2018-06-09T04:24:19.452Z,132.00
2018-06-09T04:25:19.421Z,130.90
2018-06-09T04:26:19.409Z,135.40
2018-06-09T04:27:19.395Z,133.40
2018-06-09T04:28:19.415Z,132.70
2018-06-09T04:29:19.362Z,129.50
2018-06-09T04:30:19.370Z,129.60
2018-06-09T04:31:19.336Z,132.20
2018-06-09T04:32:19.322Z,139.10
2018-06-09T04:33:19.305Z,138.10
2018-06-09T04:34:19.290Z,140.40
2018-06-09T04:35:19.275Z,141.90
2018-06-09T04:36:19.270Z,141.40
2018-06-09T04:37:19.248Z,149.20
2018-06-09T04:38:19.232Z,152.10
2018-06-09T04:39:19.217Z,156.10
2018-06-09T04:40:19.225Z,152.80
2018-06-09T04:41:19.197Z,155.10
2018-06-09T04:42:19.174Z,162.30
2018-06-09T04:43:19.162Z,164.00
2018-06-09T04:44:19.145Z,170.60
2018-06-09T04:45:19.131Z,171.10
2018-06-09T04:46:19.132Z,169.00
2018-06-09T04:47:19.110Z,165.40
2018-06-09T04:48:19.088Z,169.00
2018-06-09T04:49:19.073Z,167.10
2018-06-09T04:50:19.057Z,161.10
2018-06-09T04:51:19.045Z,162.30
2018-06-09T04:52:19.045Z,160.40
2018-06-09T04:53:19.017Z,159.20
2018-06-09T04:54:18.999Z,156.80
2018-06-09T04:55:18.987Z,155.80
2018-06-09T04:56:18.971Z,159.90
2018-06-09T04:57:18.957Z,158.00
2018-06-09T04:58:18.951Z,154.90
2018-06-09T04:59:18.968Z,156.10
2018-06-09T05:00:18.914Z,153.30
2018-06-09T05:01:18.899Z,155.90
2018-06-09T05:02:18.884Z,153.00
2018-06-09T05:03:18.882Z,152.80
2018-06-09T05:04:18.857Z,151.60
2018-06-09T05:05:18.839Z,153.00
2018-06-09T05:06:18.826Z,154.10
2018-06-09T05:07:18.876Z,152.60
2018-06-09T05:08:18.814Z,152.70
2018-06-09T05:09:18.782Z,151.10
2018-06-09T05:10:18.766Z,150.10
2018-06-09T05:11:18.757Z,143.50
2018-06-09T05:12:18.738Z,147.50
2018-06-09T05:13:18.761Z,146.40
2018-06-09T05:14:18.724Z,146.60
2018-06-09T05:15:18.698Z,143.50
2018-06-09T05:16:18.682Z,146.50
2018-06-09T05:17:18.669Z,146.30
2018-06-09T05:18:18.702Z,141.50
2018-06-09T05:19:18.637Z,140.20
2018-06-09T05:20:18.637Z,142.70
2018-06-09T05:21:18.609Z,141.40
2018-06-09T10:31:38.016Z,48.90
2018-06-09T10:32:37.927Z,60.70
2018-06-09T10:33:37.922Z,58.20
2018-06-09T10:34:37.922Z,64.90
2018-06-09T10:35:37.892Z,63.00
2018-06-09T10:36:37.880Z,62.60
2018-06-09T10:37:37.871Z,62.90
2018-06-09T10:38:37.875Z,60.20
2018-06-09T10:39:37.843Z,60.10
2018-06-09T10:40:37.844Z,61.70
2018-06-09T10:41:37.820Z,59.90
2018-06-09T10:42:37.809Z,62.90
2018-06-09T10:43:37.803Z,66.50
2018-06-09T10:44:37.802Z,64.90
2018-06-09T10:45:37.803Z,60.40
2018-06-09T10:46:37.771Z,60.50
2018-06-09T10:47:37.755Z,63.90
2018-06-09T10:48:37.752Z,59.60
2018-06-09T10:49:37.735Z,58.50
2018-06-09T10:50:37.721Z,55.60
2018-06-09T10:51:37.727Z,53.60
2018-06-09T10:52:37.707Z,55.10
2018-06-09T10:53:37.698Z,56.20
2018-06-09T10:54:37.683Z,57.50
2018-06-09T10:55:37.673Z,54.40
2018-06-09T10:56:37.695Z,56.30
2018-06-09T10:57:37.662Z,52.80
2018-06-09T10:58:37.644Z,54.90
2018-06-09T10:59:37.639Z,52.80
2018-06-09T11:00:37.628Z,54.80
2018-06-09T11:01:37.616Z,58.30
2018-06-09T11:02:37.617Z,52.90
2018-06-09T11:03:37.598Z,52.50
2018-06-09T11:04:37.585Z,52.30
2018-06-09T11:05:37.575Z,54.40
2018-06-09T11:06:37.567Z,61.50
2018-06-09T11:07:37.567Z,59.20
2018-06-09T11:08:37.547Z,58.60
2018-06-09T11:09:37.537Z,59.20
2018-06-09T11:10:37.531Z,58.30
2018-06-09T11:11:37.519Z,58.20
2018-06-09T11:12:37.525Z,59.40
2018-06-09T11:13:37.498Z,61.60
2018-06-09T11:14:37.494Z,59.40
2018-06-09T11:15:37.478Z,59.40
2018-06-09T11:16:37.477Z,59.60
2018-06-09T11:17:37.476Z,60.50
2018-06-09T11:18:37.448Z,59.50
2018-06-09T11:19:37.442Z,58.30
2018-06-09T11:20:37.433Z,57.60
2018-06-09T11:21:37.423Z,55.30
2018-06-09T11:22:37.414Z,54.90
2018-06-09T11:23:37.418Z,52.00
2018-06-09T11:24:37.405Z,52.60
2018-06-09T11:25:37.385Z,54.10
2018-06-09T11:26:37.376Z,55.40
2018-06-09T11:27:37.386Z,54.00
2018-06-09T11:28:37.355Z,52.10
2018-06-09T11:29:37.363Z,53.80
2018-06-09T11:30:37.337Z,51.80
2018-06-09T11:31:37.328Z,50.60
2018-06-09T11:32:37.320Z,53.80
2018-06-09T11:33:37.327Z,50.30
2018-06-09T11:34:37.300Z,53.50
2018-06-09T11:35:37.294Z,49.90
2018-06-09T11:36:37.281Z,51.60
2018-06-09T11:37:37.265Z,50.50
2018-06-09T11:38:37.260Z,46.60
2018-06-09T11:39:37.264Z,46.10
2018-06-09T11:40:37.247Z,49.20
2018-06-09T11:41:37.236Z,47.10
2018-06-09T11:42:37.225Z,43.40
2018-06-09T11:43:37.219Z,50.10
2018-06-09T11:44:37.216Z,47.90
2018-06-09T11:45:37.195Z,46.40
2018-06-09T11:46:37.185Z,48.40
2018-06-09T11:47:37.181Z,47.40
2018-06-09T11:48:37.174Z,48.80
2018-06-09T11:49:37.166Z,51.40
2018-06-09T11:50:37.179Z,49.70
2018-06-09T11:51:37.144Z,50.50
2018-06-09T11:52:37.128Z,49.40
2018-06-09T11:53:37.123Z,47.40
2018-06-09T11:54:37.125Z,48.80
2018-06-09T11:55:37.110Z,50.40
2018-06-09T11:56:37.097Z,46.40
2018-06-09T11:57:37.086Z,55.30
2018-06-09T11:58:37.146Z,52.80
2018-06-09T11:59:37.078Z,49.00
2018-06-09T12:00:37.057Z,51.30
2018-06-09T12:01:37.048Z,48.60
2018-06-09T12:02:37.035Z,47.50
2018-06-09T12:03:37.030Z,54.90
2018-06-09T12:04:37.038Z,51.90
2018-06-09T12:05:37.019Z,52.90
2018-06-09T12:06:37.003Z,49.50
2018-06-09T12:07:36.988Z,51.60
2018-06-09T12:08:36.985Z,51.70
2018-06-09T12:09:36.997Z,47.90
2018-06-09T12:10:36.963Z,51.90
2018-06-09T12:11:36.955Z,51.00
2018-06-09T12:12:36.946Z,48.00
2018-06-09T12:13:36.937Z,49.40
2018-06-09T12:14:36.932Z,50.30
2018-06-09T12:15:36.936Z,47.20
2018-06-09T12:16:36.911Z,47.80
2018-06-09T12:17:36.901Z,50.70
2018-06-09T12:18:36.891Z,50.70
2018-06-09T12:19:36.884Z,49.00
2018-06-09T12:20:36.875Z,51.30
2018-06-09T12:21:36.876Z,49.10
2018-06-09T12:22:36.870Z,48.50
2018-06-09T12:23:36.848Z,47.50
2018-06-09T12:24:36.846Z,45.80
2018-06-09T12:25:36.830Z,47.90
2018-06-09T12:26:36.838Z,47.90
2018-06-09T12:27:36.819Z,45.20
2018-06-09T12:28:36.807Z,47.30
2018-06-09T12:29:36.796Z,45.60
2018-06-09T12:30:36.786Z,45.40
2018-06-09T12:31:36.797Z,42.00
2018-06-09T12:32:36.793Z,41.80
2018-06-09T12:33:36.757Z,41.30
2018-06-09T12:34:36.751Z,39.70
2018-06-09T12:35:36.745Z,40.40
2018-06-09T12:36:36.751Z,40.40
2018-06-09T12:37:36.728Z,39.20
2018-06-09T12:38:36.717Z,44.10
2018-06-09T12:39:36.710Z,41.20
2018-06-09T12:40:36.704Z,42.10
2018-06-09T12:41:36.713Z,39.50
2018-06-09T12:42:36.684Z,40.10
2018-06-09T12:43:36.685Z,42.00
2018-06-09T12:44:36.681Z,40.60
2018-06-09T12:45:36.654Z,43.30
2018-06-09T12:46:36.661Z,39.70
2018-06-09T12:47:36.647Z,44.00
2018-06-09T12:48:36.678Z,45.00
2018-06-09T12:49:36.625Z,40.70
2018-06-09T12:50:36.617Z,46.00
2018-06-09T12:51:36.676Z,42.00
2018-06-09T12:52:36.599Z,45.20
2018-06-09T12:53:36.588Z,47.80
2018-06-09T12:54:36.581Z,51.60
2018-06-09T12:55:36.574Z,49.60
2018-06-09T12:56:36.583Z,46.70
2018-06-09T12:57:36.559Z,47.50
2018-06-09T12:58:36.547Z,43.70
2018-06-09T12:59:36.540Z,44.40
2018-06-09T13:00:36.540Z,45.30
2018-06-09T13:01:36.521Z,40.70
2018-06-09T13:02:36.525Z,39.00
2018-06-09T13:03:36.504Z,39.60
2018-06-09T13:04:36.499Z,37.30
2018-06-09T13:05:36.489Z,37.50
2018-06-09T13:06:36.480Z,39.00
2018-06-09T13:07:36.469Z,37.30
2018-06-09T13:08:36.479Z,35.50
2018-06-09T13:09:36.455Z,37.00
2018-06-09T13:10:36.447Z,34.70
2018-06-09T13:11:36.439Z,36.80
2018-06-09T13:12:36.430Z,38.40
2018-06-09T13:13:36.430Z,40.30
2018-06-09T13:14:36.415Z,37.20
2018-06-09T13:15:36.407Z,35.80
2018-06-09T13:16:36.404Z,36.40
2018-06-09T13:17:36.391Z,32.80
2018-06-09T13:18:36.398Z,35.80
2018-06-09T13:19:36.433Z,33.40
2018-06-09T13:20:36.371Z,34.10
2018-06-09T13:21:36.361Z,33.50
2018-06-09T13:22:36.361Z,34.80
2018-06-09T13:23:36.353Z,35.60
2018-06-09T13:24:36.354Z,35.40
2018-06-09T13:25:36.331Z,29.80
2018-06-09T13:26:36.322Z,27.70
2018-06-09T13:27:36.317Z,35.00
2018-06-09T13:28:36.314Z,34.70
2018-06-09T13:29:36.335Z,31.20
2018-06-09T13:30:36.312Z,33.10
2018-06-09T13:31:36.286Z,34.30
2018-06-09T13:32:36.279Z,30.30
2018-06-09T13:33:36.271Z,29.10
2018-06-09T13:34:36.265Z,26.10
2018-06-09T13:35:36.277Z,28.90
2018-06-09T13:36:36.253Z,28.10
2018-06-09T13:37:36.241Z,27.60
2018-06-09T13:38:36.233Z,27.20
2018-06-09T13:39:36.234Z,27.20
2018-06-09T13:40:36.228Z,30.10
2018-06-09T13:41:36.229Z,26.40
2018-06-09T13:42:36.213Z,24.20
2018-06-09T13:43:36.201Z,23.30
2018-06-09T13:44:36.194Z,26.00
2018-06-09T13:45:36.223Z,23.40
2018-06-09T13:46:36.178Z,24.10
2018-06-09T13:47:36.179Z,22.90
2018-06-09T13:48:36.167Z,23.40
2018-06-09T13:49:36.158Z,23.70
2018-06-09T13:50:36.158Z,25.00
2018-06-09T13:51:36.157Z,23.00
2018-06-09T13:52:36.147Z,21.70
2018-06-09T13:53:36.133Z,21.00
2018-06-09T13:54:36.175Z,22.30
2018-06-09T13:55:36.121Z,22.10
2018-06-09T13:56:36.152Z,23.30
2018-06-09T13:57:36.110Z,20.80
2018-06-09T13:58:36.105Z,21.90
2018-06-09T13:59:36.097Z,21.60
2018-06-09T14:00:36.090Z,20.00
2018-06-09T14:01:36.131Z,18.30
2018-06-09T14:02:36.079Z,20.20
2018-06-09T14:03:36.072Z,18.90
2018-06-09T14:04:36.072Z,19.60
2018-06-09T14:05:36.065Z,20.30
2018-06-09T14:06:36.053Z,20.40
2018-06-09T14:07:36.072Z,20.70
2018-06-09T14:08:36.046Z,20.40
2018-06-09T14:09:36.039Z,22.00
2018-06-09T14:10:36.039Z,24.50
2018-06-09T14:11:36.028Z,24.40
2018-06-09T14:12:36.024Z,23.20
2018-06-09T14:13:36.032Z,22.80
2018-06-09T14:14:36.014Z,24.00
2018-06-09T14:15:36.008Z,23.00
2018-06-09T14:16:36.010Z,22.00
2018-06-09T14:17:35.999Z,20.90
2018-06-09T14:18:36.004Z,21.00
2018-06-09T14:19:35.993Z,19.10
2018-06-09T14:20:35.985Z,18.70
2018-06-09T14:21:35.986Z,19.00
2018-06-09T14:22:35.980Z,18.80
2018-06-09T14:23:35.989Z,18.70
2018-06-09T14:24:35.967Z,18.60
2018-06-09T14:25:35.961Z,19.80
2018-06-09T14:26:35.954Z,19.00
2018-06-09T14:27:35.951Z,17.80
2018-06-09T14:28:35.962Z,18.20
2018-06-09T14:29:35.943Z,17.30
2018-06-09T14:30:35.939Z,17.60
2018-06-09T14:31:35.933Z,16.80
2018-06-09T14:32:35.939Z,18.90
2018-06-09T14:33:35.938Z,21.80
2018-06-09T14:34:35.933Z,18.20
2018-06-09T14:35:35.921Z,19.70
2018-06-09T14:36:35.917Z,18.40
2018-06-09T14:37:35.912Z,16.90
2018-06-09T14:38:35.916Z,18.30
2018-06-09T14:39:35.903Z,17.70
2018-06-09T14:40:35.900Z,17.30
2018-06-09T14:41:35.894Z,16.20
2018-06-09T14:42:35.889Z,16.20
2018-06-09T14:43:35.920Z,17.30
2018-06-09T14:44:35.885Z,20.20
2018-06-09T14:45:35.880Z,19.10
2018-06-09T14:46:35.874Z,19.20
2018-06-09T14:47:35.876Z,20.40
2018-06-09T14:48:35.868Z,18.00
2018-06-09T14:49:35.879Z,16.90
2018-06-09T14:50:35.866Z,15.80
2018-06-09T14:51:35.857Z,15.90
2018-06-09T14:52:35.852Z,17.50
2018-06-09T14:53:35.851Z,18.20
2018-06-09T14:54:35.846Z,18.40
2018-06-09T14:55:35.867Z,18.00
2018-06-09T14:56:35.840Z,17.40
2018-06-09T14:57:35.834Z,17.70
2018-06-09T14:58:35.838Z,16.10
2018-06-09T14:59:35.830Z,19.00
2018-06-09T15:00:35.836Z,17.10
2018-06-09T15:01:35.830Z,18.00
2018-06-09T15:02:35.818Z,17.40
2018-06-09T15:03:35.821Z,18.50
2018-06-09T15:04:35.811Z,17.10
2018-06-09T15:05:35.827Z,16.20
2018-06-09T15:06:35.810Z,19.30
2018-06-09T15:07:35.803Z,19.00
2018-06-09T15:08:35.796Z,18.90
2018-06-09T15:09:35.812Z,17.80
2018-06-09T15:10:35.799Z,19.20
2018-06-09T15:11:35.787Z,19.80
2018-06-09T15:12:35.790Z,17.30
2018-06-09T15:13:35.775Z,17.60
2018-06-09T15:14:35.774Z,15.30
2018-06-09T15:15:35.786Z,25.20
2018-06-09T15:16:35.769Z,17.20
2018-06-09T15:17:35.761Z,18.70
2018-06-09T15:18:35.748Z,17.20
2018-06-09T15:19:35.816Z,15.80
2018-06-09T15:20:35.776Z,16.90
2018-06-09T15:21:35.738Z,16.10
2018-06-09T15:22:35.791Z,15.60
2018-06-09T15:23:35.729Z,16.60
2018-06-09T15:24:35.727Z,16.40
2018-06-09T15:25:35.720Z,14.60
2018-06-09T15:26:35.734Z,16.00
2018-06-09T15:27:35.711Z,15.20
2018-06-09T15:28:35.715Z,16.40
2018-06-09T15:29:35.699Z,19.30
2018-06-09T15:30:35.697Z,17.10
2018-06-09T15:31:35.688Z,16.90
2018-06-09T15:32:35.695Z,15.90
2018-06-09T15:33:35.677Z,16.90
2018-06-09T15:34:35.666Z,17.30
2018-06-09T15:35:35.662Z,18.80
2018-06-09T15:36:35.664Z,19.00
2018-06-09T15:37:35.668Z,17.30
2018-06-09T15:38:35.665Z,24.30
2018-06-09T15:39:35.644Z,24.90
2018-06-09T15:40:35.641Z,46.90
2018-06-09T15:41:35.631Z,58.60
2018-06-09T15:42:35.908Z,42.40
2018-06-09T15:43:35.627Z,79.50
2018-06-09T15:44:35.620Z,18.80
2018-06-09T15:45:35.617Z,18.00
2018-06-09T15:46:35.619Z,20.60
2018-06-09T15:47:35.607Z,23.50
2018-06-09T15:48:35.624Z,31.90
2018-06-09T15:49:35.599Z,26.00
2018-06-09T15:50:35.604Z,20.20
2018-06-09T15:51:35.591Z,29.10
2018-06-09T15:52:35.590Z,21.90
2018-06-09T15:53:35.642Z,20.70
2018-06-09T15:54:35.608Z,33.10
2018-06-09T15:55:35.580Z,17.50
2018-06-09T15:56:35.573Z,18.10
2018-06-09T15:57:35.568Z,18.90
2018-06-09T15:58:35.573Z,19.60
2018-06-09T15:59:35.580Z,30.30
2018-06-09T16:00:35.561Z,24.10
2018-06-09T16:01:35.565Z,15.00
2018-06-09T16:02:35.554Z,35.00
2018-06-09T16:03:35.553Z,29.40
2018-06-09T16:04:35.562Z,80.40
2018-06-09T16:05:35.549Z,27.50
2018-06-09T16:06:35.551Z,20.80
2018-06-09T16:07:35.550Z,15.90
2018-06-09T16:08:35.544Z,16.10
2018-06-09T16:09:35.554Z,16.80
2018-06-09T16:10:35.533Z,17.20
2018-06-09T16:11:35.540Z,15.10
2018-06-09T16:12:35.534Z,15.80
2018-06-09T16:13:35.533Z,14.90
2018-06-09T16:14:35.528Z,14.80
2018-06-09T16:15:35.562Z,13.70
2018-06-09T16:16:35.525Z,14.50
2018-06-09T16:17:35.524Z,13.00
2018-06-09T16:18:35.521Z,13.60
2018-06-09T16:19:35.524Z,14.90
2018-06-09T16:20:35.515Z,15.00
2018-06-09T16:21:35.524Z,14.20
2018-06-09T16:22:35.510Z,19.30
2018-06-09T16:23:35.513Z,15.20
2018-06-09T16:24:35.510Z,14.70
2018-06-09T16:25:35.507Z,13.90
2018-06-09T16:26:35.516Z,14.30
2018-06-09T16:27:35.500Z,12.70
2018-06-09T16:28:35.500Z,14.60
2018-06-09T16:29:35.494Z,15.50
2018-06-09T16:30:35.494Z,15.70
2018-06-09T16:31:35.488Z,15.40
2018-06-09T16:32:35.541Z,14.60
2018-06-09T16:33:35.480Z,15.10
2018-06-09T16:34:35.484Z,14.60
2018-06-09T16:35:35.475Z,15.50
2018-06-09T16:36:35.480Z,17.10
2018-06-09T16:37:35.480Z,17.00
2018-06-09T16:38:35.498Z,16.30
2018-06-09T16:39:35.463Z,14.70
2018-06-09T16:40:35.451Z,13.50
2018-06-09T16:41:35.459Z,14.30
2018-06-09T16:42:35.436Z,14.90
2018-06-09T16:43:35.432Z,15.90
2018-06-09T16:44:35.429Z,14.70
2018-06-09T16:45:35.456Z,15.50
2018-06-09T16:46:35.429Z,13.40
2018-06-09T16:47:35.456Z,13.90
2018-06-09T16:48:35.403Z,14.80
2018-06-09T16:49:35.396Z,14.30
2018-06-09T16:50:35.395Z,13.70
2018-06-09T16:51:35.402Z,14.10
2018-06-09T16:52:35.377Z,16.90
2018-06-09T16:53:35.367Z,14.00
2018-06-09T16:54:35.381Z,15.20
2018-06-09T16:55:35.360Z,15.50
2018-06-09T16:56:35.352Z,14.10
2018-06-09T16:57:35.354Z,14.00
2018-06-09T16:58:35.335Z,13.90
2018-06-09T16:59:35.329Z,15.20
2018-06-09T17:00:35.318Z,15.50
2018-06-09T17:01:35.315Z,15.80
2018-06-09T17:02:35.588Z,16.80
2018-06-09T17:03:35.294Z,15.00
2018-06-09T17:04:35.288Z,15.30
2018-06-09T17:05:35.277Z,15.30
2018-06-09T17:06:35.274Z,15.30
2018-06-09T17:07:35.261Z,15.40
2018-06-09T17:08:35.269Z,15.50
2018-06-09T17:09:35.241Z,16.20
2018-06-09T17:10:35.237Z,15.10
2018-06-09T17:11:35.226Z,15.80
2018-06-09T17:12:35.218Z,14.90
2018-06-09T17:13:35.211Z,14.80
2018-06-09T17:14:35.208Z,15.50
2018-06-09T17:15:35.192Z,15.10
2018-06-09T17:16:35.181Z,16.40
2018-06-09T17:17:35.173Z,15.10
2018-06-09T17:18:35.187Z,15.00
2018-06-09T17:19:35.155Z,14.20
2018-06-09T17:20:35.145Z,15.30
2018-06-09T17:21:35.151Z,14.80
2018-06-09T17:22:35.138Z,15.10
2018-06-09T17:23:35.121Z,14.60
2018-06-09T17:24:35.120Z,15.10
2018-06-09T17:25:35.101Z,16.60
2018-06-09T17:26:35.092Z,14.80
2018-06-09T17:27:35.077Z,15.70
2018-06-09T17:28:35.072Z,14.80
2018-06-09T17:29:35.077Z,13.60
2018-06-09T17:30:35.052Z,14.50
2018-06-09T17:31:35.045Z,15.20
2018-06-09T17:32:35.033Z,14.80
2018-06-09T17:33:35.037Z,15.10
2018-06-09T17:34:35.016Z,15.40
2018-06-09T17:35:35.004Z,15.10
2018-06-09T17:36:35.000Z,15.50
2018-06-09T17:37:34.989Z,15.50
2018-06-09T17:38:34.994Z,15.40
2018-06-09T17:39:34.966Z,17.80
2018-06-09T17:40:34.956Z,16.10
2018-06-09T17:41:34.945Z,14.90
2018-06-09T17:42:34.937Z,14.40
2018-06-09T17:43:34.935Z,15.30
2018-06-09T17:44:34.916Z,16.20
2018-06-09T17:45:34.915Z,16.20
2018-06-09T17:46:34.897Z,16.00
2018-06-09T17:47:34.887Z,15.40
2018-06-09T17:48:34.895Z,14.70
2018-06-09T17:49:34.870Z,15.60
2018-06-09T17:50:34.857Z,16.50
2018-06-09T17:51:34.848Z,14.80